sensor_id;sensor_type;location;lat;lon;timestamp;P1;durP1;ratioP1;P2;durP2;ratioP2
68800;SDS011;55784;50.734;7.086;2023-08-07T00:00:20;9.97;;;1.73;;
68800;SDS011;55784;50.734;7.086;2023-08-07T00:02:45;9.20;;;1.60;;
68800;SDS011;55784;50.734;7.086;2023-08-07T00:05:10;10.77;;;2.07;;
68800;SDS011;55784;50.734;7.086;2023-08-07T00:07:36;7.50;;;1.57;;
68800;SDS011;55784;50.734;7.086;2023-08-07T00:10:01;10.33;;;1.60;;
68800;SDS011;55784;50.734;7.086;2023-08-07T00:12:28;9.77;;;1.80;;
68800;SDS011;55784;50.734;7.086;2023-08-07T00:14:53;9.10;;;2.00;;
68800;SDS011;55784;50.734;7.086;2023-08-07T00:17:18;9.73;;;1.80;;
68800;SDS011;55784;50.734;7.086;2023-08-07T00:19:44;8.97;;;1.70;;
68800;SDS011;55784;50.734;7.086;2023-08-07T00:22:09;9.17;;;1.50;;
68800;SDS011;55784;50.734;7.086;2023-08-07T00:24:34;8.00;;;1.63;;
68800;SDS011;55784;50.734;7.086;2023-08-07T00:27:00;7.65;;;1.60;;
68800;SDS011;55784;50.734;7.086;2023-08-07T00:29:25;8.47;;;1.30;;
68800;SDS011;55784;50.734;7.086;2023-08-07T00:31:51;9.13;;;1.40;;
68800;SDS011;55784;50.734;7.086;2023-08-07T00:34:16;9.77;;;1.57;;
68800;SDS011;55784;50.734;7.086;2023-08-07T00:36:41;11.13;;;1.47;;
68800;SDS011;55784;50.734;7.086;2023-08-07T00:39:06;7.47;;;1.50;;
68800;SDS011;55784;50.734;7.086;2023-08-07T00:41:33;7.78;;;1.30;;
68800;SDS011;55784;50.734;7.086;2023-08-07T00:43:58;7.73;;;1.50;;
68800;SDS011;55784;50.734;7.086;2023-08-07T00:46:24;9.40;;;1.73;;
68800;SDS011;55784;50.734;7.086;2023-08-07T00:48:49;8.40;;;1.55;;
68800;SDS011;55784;50.734;7.086;2023-08-07T00:51:16;11.27;;;1.73;;
68800;SDS011;55784;50.734;7.086;2023-08-07T00:53:42;11.57;;;1.90;;
68800;SDS011;55784;50.734;7.086;2023-08-07T00:56:08;11.13;;;1.60;;
68800;SDS011;55784;50.734;7.086;2023-08-07T00:58:33;7.83;;;1.63;;
68800;SDS011;55784;50.734;7.086;2023-08-07T01:00:59;9.70;;;1.50;;
68800;SDS011;55784;50.734;7.086;2023-08-07T01:03:24;7.70;;;1.53;;
68800;SDS011;55784;50.734;7.086;2023-08-07T01:05:49;8.25;;;1.60;;
68800;SDS011;55784;50.734;7.086;2023-08-07T01:08:15;11.00;;;2.20;;
68800;SDS011;55784;50.734;7.086;2023-08-07T01:10:47;6.97;;;1.60;;
68800;SDS011;55784;50.734;7.086;2023-08-07T01:16:43;7.53;;;1.63;;
68800;SDS011;55784;50.734;7.086;2023-08-07T01:19:19;9.15;;;1.33;;
68800;SDS011;55784;50.734;7.086;2023-08-07T01:21:49;10.32;;;1.60;;
68800;SDS011;55784;50.734;7.086;2023-08-07T01:27:35;9.00;;;1.75;;
68800;SDS011;55784;50.734;7.086;2023-08-07T01:32:46;9.05;;;1.13;;
68800;SDS011;55784;50.734;7.086;2023-08-07T01:35:41;10.18;;;1.60;;
68800;SDS011;55784;50.734;7.086;2023-08-07T01:38:09;8.88;;;1.70;;
68800;SDS011;55784;50.734;7.086;2023-08-07T01:40:36;11.40;;;1.65;;
68800;SDS011;55784;50.734;7.086;2023-08-07T01:43:03;9.13;;;1.80;;
68800;SDS011;55784;50.734;7.086;2023-08-07T01:45:28;9.20;;;1.50;;
68800;SDS011;55784;50.734;7.086;2023-08-07T01:47:54;7.97;;;1.55;;
68800;SDS011;55784;50.734;7.086;2023-08-07T01:50:20;9.13;;;1.70;;
68800;SDS011;55784;50.734;7.086;2023-08-07T01:52:46;11.35;;;2.10;;
68800;SDS011;55784;50.734;7.086;2023-08-07T01:55:13;11.10;;;1.60;;
68800;SDS011;55784;50.734;7.086;2023-08-07T01:57:39;9.10;;;1.75;;
68800;SDS011;55784;50.734;7.086;2023-08-07T02:00:04;8.47;;;1.77;;
68800;SDS011;55784;50.734;7.086;2023-08-07T02:02:30;9.52;;;1.70;;
68800;SDS011;55784;50.734;7.086;2023-08-07T02:04:55;8.60;;;1.73;;
68800;SDS011;55784;50.734;7.086;2023-08-07T02:07:21;7.83;;;1.77;;
68800;SDS011;55784;50.734;7.086;2023-08-07T02:09:46;9.47;;;1.80;;
68800;SDS011;55784;50.734;7.086;2023-08-07T02:12:11;8.03;;;1.90;;
68800;SDS011;55784;50.734;7.086;2023-08-07T02:14:36;9.23;;;1.50;;
68800;SDS011;55784;50.734;7.086;2023-08-07T02:17:02;11.13;;;1.73;;
68800;SDS011;55784;50.734;7.086;2023-08-07T02:19:27;10.90;;;1.73;;
68800;SDS011;55784;50.734;7.086;2023-08-07T02:21:53;10.02;;;1.67;;
68800;SDS011;55784;50.734;7.086;2023-08-07T02:24:18;9.38;;;1.70;;
68800;SDS011;55784;50.734;7.086;2023-08-07T02:26:45;12.00;;;1.70;;
68800;SDS011;55784;50.734;7.086;2023-08-07T02:29:10;8.05;;;1.60;;
68800;SDS011;55784;50.734;7.086;2023-08-07T02:31:35;10.77;;;1.65;;
68800;SDS011;55784;50.734;7.086;2023-08-07T02:34:00;8.83;;;1.60;;
68800;SDS011;55784;50.734;7.086;2023-08-07T02:36:26;9.10;;;1.87;;
68800;SDS011;55784;50.734;7.086;2023-08-07T02:38:51;9.83;;;1.70;;
68800;SDS011;55784;50.734;7.086;2023-08-07T02:41:16;6.23;;;1.40;;
68800;SDS011;55784;50.734;7.086;2023-08-07T02:43:42;8.53;;;1.50;;
68800;SDS011;55784;50.734;7.086;2023-08-07T02:46:07;9.95;;;1.60;;
68800;SDS011;55784;50.734;7.086;2023-08-07T02:48:33;8.87;;;1.60;;
68800;SDS011;55784;50.734;7.086;2023-08-07T02:50:58;9.13;;;2.07;;
68800;SDS011;55784;50.734;7.086;2023-08-07T02:53:23;8.07;;;1.40;;
68800;SDS011;55784;50.734;7.086;2023-08-07T02:55:49;9.07;;;1.60;;
68800;SDS011;55784;50.734;7.086;2023-08-07T02:58:14;8.93;;;1.73;;
68800;SDS011;55784;50.734;7.086;2023-08-07T03:00:39;8.60;;;1.57;;
68800;SDS011;55784;50.734;7.086;2023-08-07T03:03:05;10.95;;;1.77;;
68800;SDS011;55784;50.734;7.086;2023-08-07T03:05:30;7.53;;;1.30;;
68800;SDS011;55784;50.734;7.086;2023-08-07T03:07:55;7.90;;;1.57;;
68800;SDS011;55784;50.734;7.086;2023-08-07T03:10:21;7.33;;;1.73;;
68800;SDS011;55784;50.734;7.086;2023-08-07T03:12:46;7.10;;;1.40;;
68800;SDS011;55784;50.734;7.086;2023-08-07T03:15:11;8.17;;;1.30;;
68800;SDS011;55784;50.734;7.086;2023-08-07T03:17:37;9.10;;;1.50;;
68800;SDS011;55784;50.734;7.086;2023-08-07T03:20:03;8.98;;;1.50;;
68800;SDS011;55784;50.734;7.086;2023-08-07T03:22:31;7.55;;;1.80;;
68800;SDS011;55784;50.734;7.086;2023-08-07T03:24:56;9.90;;;1.60;;
68800;SDS011;55784;50.734;7.086;2023-08-07T03:27:22;7.80;;;1.40;;
68800;SDS011;55784;50.734;7.086;2023-08-07T03:29:47;9.17;;;1.97;;
68800;SDS011;55784;50.734;7.086;2023-08-07T03:32:12;11.27;;;2.23;;
68800;SDS011;55784;50.734;7.086;2023-08-07T03:34:38;7.87;;;1.60;;
68800;SDS011;55784;50.734;7.086;2023-08-07T03:37:03;10.97;;;1.70;;
68800;SDS011;55784;50.734;7.086;2023-08-07T03:39:29;7.60;;;1.52;;
68800;SDS011;55784;50.734;7.086;2023-08-07T03:41:54;9.13;;;1.90;;
68800;SDS011;55784;50.734;7.086;2023-08-07T03:44:19;10.13;;;1.90;;
68800;SDS011;55784;50.734;7.086;2023-08-07T03:46:45;10.67;;;2.10;;
68800;SDS011;55784;50.734;7.086;2023-08-07T03:49:10;8.03;;;1.77;;
68800;SDS011;55784;50.734;7.086;2023-08-07T03:51:35;9.00;;;1.70;;
68800;SDS011;55784;50.734;7.086;2023-08-07T03:54:00;6.88;;;1.60;;
68800;SDS011;55784;50.734;7.086;2023-08-07T03:56:26;10.65;;;1.80;;
68800;SDS011;55784;50.734;7.086;2023-08-07T03:58:51;8.10;;;1.53;;
68800;SDS011;55784;50.734;7.086;2023-08-07T04:01:17;10.50;;;2.33;;
68800;SDS011;55784;50.734;7.086;2023-08-07T04:03:42;7.85;;;1.98;;
68800;SDS011;55784;50.734;7.086;2023-08-07T04:06:07;8.13;;;1.83;;
68800;SDS011;55784;50.734;7.086;2023-08-07T04:08:33;7.40;;;1.90;;
68800;SDS011;55784;50.734;7.086;2023-08-07T04:11:02;8.43;;;1.80;;
68800;SDS011;55784;50.734;7.086;2023-08-07T04:13:30;7.40;;;1.70;;
68800;SDS011;55784;50.734;7.086;2023-08-07T04:15:56;7.47;;;1.80;;
68800;SDS011;55784;50.734;7.086;2023-08-07T04:18:22;6.32;;;1.50;;
68800;SDS011;55784;50.734;7.086;2023-08-07T04:20:48;7.32;;;1.75;;
68800;SDS011;55784;50.734;7.086;2023-08-07T04:23:15;8.77;;;1.67;;
68800;SDS011;55784;50.734;7.086;2023-08-07T04:25:40;8.30;;;1.70;;
68800;SDS011;55784;50.734;7.086;2023-08-07T04:28:05;8.80;;;1.80;;
68800;SDS011;55784;50.734;7.086;2023-08-07T04:30:31;8.33;;;1.70;;
68800;SDS011;55784;50.734;7.086;2023-08-07T04:32:56;10.93;;;1.97;;
68800;SDS011;55784;50.734;7.086;2023-08-07T04:35:21;8.00;;;1.90;;
68800;SDS011;55784;50.734;7.086;2023-08-07T04:37:47;8.50;;;1.70;;
68800;SDS011;55784;50.734;7.086;2023-08-07T04:40:12;7.53;;;1.50;;
68800;SDS011;55784;50.734;7.086;2023-08-07T04:42:37;6.87;;;1.70;;
68800;SDS011;55784;50.734;7.086;2023-08-07T04:45:03;8.03;;;1.83;;
68800;SDS011;55784;50.734;7.086;2023-08-07T04:47:28;8.15;;;1.98;;
68800;SDS011;55784;50.734;7.086;2023-08-07T04:49:54;9.57;;;2.20;;
68800;SDS011;55784;50.734;7.086;2023-08-07T04:52:19;9.97;;;1.90;;
68800;SDS011;55784;50.734;7.086;2023-08-07T04:54:44;8.50;;;1.80;;
68800;SDS011;55784;50.734;7.086;2023-08-07T04:57:10;7.47;;;1.50;;
68800;SDS011;55784;50.734;7.086;2023-08-07T04:59:35;12.03;;;2.00;;
68800;SDS011;55784;50.734;7.086;2023-08-07T05:02:00;9.23;;;1.73;;
68800;SDS011;55784;50.734;7.086;2023-08-07T05:04:26;7.47;;;1.73;;
68800;SDS011;55784;50.734;7.086;2023-08-07T05:06:51;8.33;;;1.70;;
68800;SDS011;55784;50.734;7.086;2023-08-07T05:09:16;7.53;;;1.80;;
68800;SDS011;55784;50.734;7.086;2023-08-07T05:11:42;8.93;;;1.50;;
68800;SDS011;55784;50.734;7.086;2023-08-07T05:14:07;7.50;;;1.43;;
68800;SDS011;55784;50.734;7.086;2023-08-07T05:16:32;6.37;;;1.70;;
68800;SDS011;55784;50.734;7.086;2023-08-07T05:18:58;8.47;;;1.67;;
68800;SDS011;55784;50.734;7.086;2023-08-07T05:21:23;8.23;;;1.77;;
68800;SDS011;55784;50.734;7.086;2023-08-07T05:23:48;8.90;;;1.70;;
68800;SDS011;55784;50.734;7.086;2023-08-07T05:26:18;7.50;;;1.52;;
68800;SDS011;55784;50.734;7.086;2023-08-07T05:28:43;11.57;;;1.88;;
68800;SDS011;55784;50.734;7.086;2023-08-07T05:31:08;7.43;;;1.27;;
68800;SDS011;55784;50.734;7.086;2023-08-07T05:33:34;7.20;;;1.77;;
68800;SDS011;55784;50.734;7.086;2023-08-07T05:35:59;8.00;;;1.50;;
68800;SDS011;55784;50.734;7.086;2023-08-07T05:38:24;8.97;;;1.43;;
68800;SDS011;55784;50.734;7.086;2023-08-07T05:40:50;8.40;;;1.67;;
68800;SDS011;55784;50.734;7.086;2023-08-07T05:43:16;8.30;;;1.50;;
68800;SDS011;55784;50.734;7.086;2023-08-07T05:45:42;8.27;;;1.77;;
68800;SDS011;55784;50.734;7.086;2023-08-07T05:48:09;8.52;;;1.70;;
68800;SDS011;55784;50.734;7.086;2023-08-07T05:50:35;7.57;;;1.50;;
68800;SDS011;55784;50.734;7.086;2023-08-07T05:53:00;12.27;;;1.70;;
68800;SDS011;55784;50.734;7.086;2023-08-07T05:55:26;8.90;;;1.73;;
68800;SDS011;55784;50.734;7.086;2023-08-07T05:57:51;8.73;;;1.50;;
68800;SDS011;55784;50.734;7.086;2023-08-07T06:00:16;7.70;;;1.70;;
68800;SDS011;55784;50.734;7.086;2023-08-07T06:02:44;8.95;;;1.85;;
68800;SDS011;55784;50.734;7.086;2023-08-07T06:05:09;7.33;;;1.43;;
68800;SDS011;55784;50.734;7.086;2023-08-07T06:07:37;11.00;;;1.88;;
68800;SDS011;55784;50.734;7.086;2023-08-07T06:10:03;8.57;;;1.50;;
68800;SDS011;55784;50.734;7.086;2023-08-07T06:12:28;6.30;;;1.23;;
68800;SDS011;55784;50.734;7.086;2023-08-07T06:14:54;9.48;;;1.50;;
68800;SDS011;55784;50.734;7.086;2023-08-07T06:17:19;8.48;;;1.60;;
68800;SDS011;55784;50.734;7.086;2023-08-07T06:19:44;6.83;;;1.50;;
68800;SDS011;55784;50.734;7.086;2023-08-07T06:22:10;7.40;;;1.70;;
68800;SDS011;55784;50.734;7.086;2023-08-07T06:24:35;7.33;;;1.30;;
68800;SDS011;55784;50.734;7.086;2023-08-07T06:27:02;7.80;;;1.40;;
68800;SDS011;55784;50.734;7.086;2023-08-07T06:29:27;7.18;;;1.42;;
68800;SDS011;55784;50.734;7.086;2023-08-07T06:31:53;11.40;;;1.73;;
68800;SDS011;55784;50.734;7.086;2023-08-07T06:34:18;8.57;;;1.60;;
68800;SDS011;55784;50.734;7.086;2023-08-07T06:36:43;8.93;;;1.60;;
68800;SDS011;55784;50.734;7.086;2023-08-07T06:39:09;9.23;;;1.65;;
68800;SDS011;55784;50.734;7.086;2023-08-07T06:41:35;7.57;;;1.90;;
68800;SDS011;55784;50.734;7.086;2023-08-07T06:44:01;8.03;;;1.70;;
68800;SDS011;55784;50.734;7.086;2023-08-07T06:46:26;7.57;;;1.60;;
68800;SDS011;55784;50.734;7.086;2023-08-07T06:48:52;9.25;;;1.60;;
68800;SDS011;55784;50.734;7.086;2023-08-07T06:51:18;6.00;;;1.52;;
68800;SDS011;55784;50.734;7.086;2023-08-07T06:53:44;6.50;;;1.43;;
68800;SDS011;55784;50.734;7.086;2023-08-07T06:56:09;8.43;;;1.73;;
68800;SDS011;55784;50.734;7.086;2023-08-07T06:58:34;7.43;;;1.80;;
68800;SDS011;55784;50.734;7.086;2023-08-07T07:00:59;7.90;;;1.80;;
68800;SDS011;55784;50.734;7.086;2023-08-07T07:03:25;10.37;;;1.60;;
68800;SDS011;55784;50.734;7.086;2023-08-07T07:05:50;9.30;;;1.50;;
68800;SDS011;55784;50.734;7.086;2023-08-07T07:08:15;9.25;;;2.00;;
68800;SDS011;55784;50.734;7.086;2023-08-07T07:10:41;7.57;;;1.50;;
68800;SDS011;55784;50.734;7.086;2023-08-07T07:13:06;8.50;;;2.10;;
68800;SDS011;55784;50.734;7.086;2023-08-07T07:15:34;9.73;;;1.88;;
68800;SDS011;55784;50.734;7.086;2023-08-07T07:18:00;9.02;;;1.60;;
68800;SDS011;55784;50.734;7.086;2023-08-07T07:20:25;8.27;;;1.60;;
68800;SDS011;55784;50.734;7.086;2023-08-07T07:22:51;9.13;;;1.50;;
68800;SDS011;55784;50.734;7.086;2023-08-07T07:25:17;8.57;;;1.60;;
68800;SDS011;55784;50.734;7.086;2023-08-07T07:27:42;7.37;;;1.50;;
68800;SDS011;55784;50.734;7.086;2023-08-07T07:30:08;8.43;;;1.50;;
68800;SDS011;55784;50.734;7.086;2023-08-07T07:32:33;6.15;;;1.48;;
68800;SDS011;55784;50.734;7.086;2023-08-07T07:34:59;6.87;;;1.60;;
68800;SDS011;55784;50.734;7.086;2023-08-07T07:37:24;8.03;;;1.50;;
68800;SDS011;55784;50.734;7.086;2023-08-07T07:39:49;7.37;;;1.40;;
68800;SDS011;55784;50.734;7.086;2023-08-07T07:42:15;7.73;;;1.47;;
68800;SDS011;55784;50.734;7.086;2023-08-07T07:44:40;9.80;;;1.67;;
68800;SDS011;55784;50.734;7.086;2023-08-07T07:47:05;8.20;;;2.13;;
68800;SDS011;55784;50.734;7.086;2023-08-07T07:49:32;7.72;;;1.40;;
68800;SDS011;55784;50.734;7.086;2023-08-07T07:52:03;6.88;;;1.70;;
68800;SDS011;55784;50.734;7.086;2023-08-07T07:54:31;8.57;;;1.50;;
68800;SDS011;55784;50.734;7.086;2023-08-07T07:57:00;9.88;;;1.90;;
68800;SDS011;55784;50.734;7.086;2023-08-07T07:59:28;9.80;;;1.85;;
68800;SDS011;55784;50.734;7.086;2023-08-07T08:01:53;7.10;;;1.60;;
68800;SDS011;55784;50.734;7.086;2023-08-07T08:04:19;9.50;;;1.73;;
68800;SDS011;55784;50.734;7.086;2023-08-07T08:06:44;6.87;;;1.43;;
68800;SDS011;55784;50.734;7.086;2023-08-07T08:09:09;8.32;;;1.50;;
68800;SDS011;55784;50.734;7.086;2023-08-07T08:11:35;8.57;;;1.57;;
68800;SDS011;55784;50.734;7.086;2023-08-07T08:14:00;8.47;;;1.77;;
68800;SDS011;55784;50.734;7.086;2023-08-07T08:16:25;8.70;;;1.47;;
68800;SDS011;55784;50.734;7.086;2023-08-07T08:18:51;9.03;;;1.70;;
68800;SDS011;55784;50.734;7.086;2023-08-07T08:21:16;11.80;;;1.93;;
68800;SDS011;55784;50.734;7.086;2023-08-07T08:23:41;7.73;;;1.60;;
68800;SDS011;55784;50.734;7.086;2023-08-07T08:26:06;8.07;;;1.70;;
68800;SDS011;55784;50.734;7.086;2023-08-07T08:28:32;7.60;;;1.90;;
68800;SDS011;55784;50.734;7.086;2023-08-07T08:30:57;6.07;;;1.60;;
68800;SDS011;55784;50.734;7.086;2023-08-07T08:33:23;11.00;;;1.50;;
68800;SDS011;55784;50.734;7.086;2023-08-07T08:35:48;7.77;;;1.60;;
68800;SDS011;55784;50.734;7.086;2023-08-07T08:38:13;8.70;;;1.80;;
68800;SDS011;55784;50.734;7.086;2023-08-07T08:40:39;8.10;;;1.40;;
68800;SDS011;55784;50.734;7.086;2023-08-07T08:43:05;10.23;;;1.73;;
68800;SDS011;55784;50.734;7.086;2023-08-07T08:45:31;10.80;;;1.92;;
68800;SDS011;55784;50.734;7.086;2023-08-07T08:48:02;7.97;;;1.40;;
68800;SDS011;55784;50.734;7.086;2023-08-07T08:50:28;11.52;;;1.60;;
68800;SDS011;55784;50.734;7.086;2023-08-07T08:52:55;7.78;;;1.48;;
68800;SDS011;55784;50.734;7.086;2023-08-07T08:55:21;6.45;;;1.50;;
68800;SDS011;55784;50.734;7.086;2023-08-07T08:57:48;7.30;;;1.40;;
68800;SDS011;55784;50.734;7.086;2023-08-07T09:00:18;10.00;;;1.70;;
68800;SDS011;55784;50.734;7.086;2023-08-07T09:02:48;7.80;;;1.70;;
68800;SDS011;55784;50.734;7.086;2023-08-07T09:05:15;9.05;;;1.67;;
68800;SDS011;55784;50.734;7.086;2023-08-07T09:07:41;8.63;;;1.65;;
68800;SDS011;55784;50.734;7.086;2023-08-07T09:10:07;6.10;;;1.40;;
68800;SDS011;55784;50.734;7.086;2023-08-07T09:12:34;8.93;;;1.60;;
68800;SDS011;55784;50.734;7.086;2023-08-07T09:15:04;11.93;;;1.75;;
68800;SDS011;55784;50.734;7.086;2023-08-07T09:17:33;8.65;;;1.40;;
68800;SDS011;55784;50.734;7.086;2023-08-07T09:20:02;6.83;;;1.40;;
68800;SDS011;55784;50.734;7.086;2023-08-07T09:22:29;6.82;;;1.25;;
68800;SDS011;55784;50.734;7.086;2023-08-07T09:24:54;8.33;;;1.30;;
68800;SDS011;55784;50.734;7.086;2023-08-07T09:27:21;7.57;;;1.27;;
68800;SDS011;55784;50.734;7.086;2023-08-07T09:29:46;7.97;;;1.30;;
68800;SDS011;55784;50.734;7.086;2023-08-07T09:32:12;6.05;;;1.30;;
68800;SDS011;55784;50.734;7.086;2023-08-07T09:34:39;7.22;;;1.40;;
68800;SDS011;55784;50.734;7.086;2023-08-07T09:37:05;8.40;;;1.40;;
68800;SDS011;55784;50.734;7.086;2023-08-07T09:39:32;6.57;;;1.40;;
68800;SDS011;55784;50.734;7.086;2023-08-07T09:41:57;5.90;;;1.40;;
68800;SDS011;55784;50.734;7.086;2023-08-07T09:44:23;6.03;;;1.30;;
68800;SDS011;55784;50.734;7.086;2023-08-07T09:46:48;6.33;;;1.60;;
68800;SDS011;55784;50.734;7.086;2023-08-07T09:49:14;6.70;;;1.57;;
68800;SDS011;55784;50.734;7.086;2023-08-07T09:51:43;7.70;;;1.70;;
68800;SDS011;55784;50.734;7.086;2023-08-07T09:54:08;5.80;;;1.52;;
68800;SDS011;55784;50.734;7.086;2023-08-07T09:56:35;11.47;;;1.70;;
68800;SDS011;55784;50.734;7.086;2023-08-07T09:59:00;7.95;;;1.73;;
68800;SDS011;55784;50.734;7.086;2023-08-07T10:01:26;4.90;;;1.30;;
68800;SDS011;55784;50.734;7.086;2023-08-07T10:03:51;6.90;;;1.50;;
68800;SDS011;55784;50.734;7.086;2023-08-07T10:06:17;7.97;;;1.60;;
68800;SDS011;55784;50.734;7.086;2023-08-07T10:08:43;11.03;;;1.87;;
68800;SDS011;55784;50.734;7.086;2023-08-07T10:11:10;7.50;;;1.48;;
68800;SDS011;55784;50.734;7.086;2023-08-07T10:13:37;6.70;;;1.42;;
68800;SDS011;55784;50.734;7.086;2023-08-07T10:16:03;8.60;;;1.70;;
68800;SDS011;55784;50.734;7.086;2023-08-07T10:18:29;8.43;;;1.73;;
68800;SDS011;55784;50.734;7.086;2023-08-07T10:20:54;7.07;;;1.43;;
68800;SDS011;55784;50.734;7.086;2023-08-07T10:23:22;7.53;;;1.53;;
68800;SDS011;55784;50.734;7.086;2023-08-07T10:25:47;8.27;;;1.70;;
68800;SDS011;55784;50.734;7.086;2023-08-07T10:28:16;6.93;;;1.52;;
68800;SDS011;55784;50.734;7.086;2023-08-07T10:30:43;8.60;;;1.77;;
68800;SDS011;55784;50.734;7.086;2023-08-07T10:33:09;7.10;;;1.48;;
68800;SDS011;55784;50.734;7.086;2023-08-07T10:35:36;7.18;;;1.70;;
68800;SDS011;55784;50.734;7.086;2023-08-07T10:38:08;5.67;;;1.70;;
68800;SDS011;55784;50.734;7.086;2023-08-07T10:43:42;7.15;;;1.30;;
68800;SDS011;55784;50.734;7.086;2023-08-07T10:46:12;8.43;;;1.40;;
68800;SDS011;55784;50.734;7.086;2023-08-07T10:48:44;6.87;;;1.40;;
68800;SDS011;55784;50.734;7.086;2023-08-07T10:51:18;5.80;;;1.50;;
68800;SDS011;55784;50.734;7.086;2023-08-07T10:53:48;5.47;;;1.30;;
68800;SDS011;55784;50.734;7.086;2023-08-07T10:56:28;7.13;;;1.50;;
68800;SDS011;55784;50.734;7.086;2023-08-07T10:59:07;5.70;;;1.40;;
68800;SDS011;55784;50.734;7.086;2023-08-07T11:04:05;10.50;;;1.80;;
68800;SDS011;55784;50.734;7.086;2023-08-07T11:06:33;6.75;;;1.75;;
68800;SDS011;55784;50.734;7.086;2023-08-07T11:09:00;6.38;;;1.48;;
68800;SDS011;55784;50.734;7.086;2023-08-07T11:11:28;7.47;;;1.50;;
68800;SDS011;55784;50.734;7.086;2023-08-07T11:13:54;12.57;;;1.70;;
68800;SDS011;55784;50.734;7.086;2023-08-07T11:16:20;6.37;;;1.60;;
68800;SDS011;55784;50.734;7.086;2023-08-07T11:18:46;6.63;;;1.33;;
68800;SDS011;55784;50.734;7.086;2023-08-07T11:21:12;6.40;;;1.45;;
68800;SDS011;55784;50.734;7.086;2023-08-07T11:23:38;5.40;;;1.35;;
68800;SDS011;55784;50.734;7.086;2023-08-07T11:26:04;6.97;;;1.50;;
68800;SDS011;55784;50.734;7.086;2023-08-07T11:28:30;6.15;;;1.20;;
68800;SDS011;55784;50.734;7.086;2023-08-07T11:30:56;7.63;;;1.40;;
68800;SDS011;55784;50.734;7.086;2023-08-07T11:33:25;11.00;;;1.80;;
68800;SDS011;55784;50.734;7.086;2023-08-07T11:35:51;6.07;;;1.40;;
68800;SDS011;55784;50.734;7.086;2023-08-07T11:38:37;7.90;;;1.40;;
68800;SDS011;55784;50.734;7.086;2023-08-07T11:41:05;6.77;;;1.60;;
68800;SDS011;55784;50.734;7.086;2023-08-07T11:43:32;6.40;;;1.40;;
68800;SDS011;55784;50.734;7.086;2023-08-07T11:45:59;6.80;;;1.50;;
68800;SDS011;55784;50.734;7.086;2023-08-07T11:48:26;7.68;;;1.60;;
68800;SDS011;55784;50.734;7.086;2023-08-07T11:50:53;5.28;;;1.23;;
68800;SDS011;55784;50.734;7.086;2023-08-07T11:53:20;7.30;;;1.40;;
68800;SDS011;55784;50.734;7.086;2023-08-07T11:55:52;7.22;;;2.00;;
68800;SDS011;55784;50.734;7.086;2023-08-07T11:58:19;7.40;;;1.58;;
68800;SDS011;55784;50.734;7.086;2023-08-07T12:00:44;5.97;;;1.20;;
68800;SDS011;55784;50.734;7.086;2023-08-07T12:06:14;6.25;;;1.38;;
68800;SDS011;55784;50.734;7.086;2023-08-07T12:08:40;5.13;;;1.23;;
68800;SDS011;55784;50.734;7.086;2023-08-07T12:11:08;6.20;;;1.52;;
68800;SDS011;55784;50.734;7.086;2023-08-07T12:13:36;7.63;;;1.60;;
68800;SDS011;55784;50.734;7.086;2023-08-07T12:16:03;10.63;;;3.45;;
68800;SDS011;55784;50.734;7.086;2023-08-07T12:18:31;101.82;;;52.33;;
68800;SDS011;55784;50.734;7.086;2023-08-07T12:21:03;86.80;;;42.10;;
68800;SDS011;55784;50.734;7.086;2023-08-07T12:23:32;86.63;;;43.83;;
68800;SDS011;55784;50.734;7.086;2023-08-07T12:25:58;20.85;;;9.90;;
68800;SDS011;55784;50.734;7.086;2023-08-07T12:28:24;20.10;;;8.67;;
68800;SDS011;55784;50.734;7.086;2023-08-07T12:30:50;10.23;;;4.33;;
68800;SDS011;55784;50.734;7.086;2023-08-07T12:33:16;17.52;;;8.05;;
68800;SDS011;55784;50.734;7.086;2023-08-07T12:35:41;8.43;;;2.28;;
68800;SDS011;55784;50.734;7.086;2023-08-07T12:38:07;9.80;;;3.20;;
68800;SDS011;55784;50.734;7.086;2023-08-07T12:40:34;8.90;;;2.25;;
68800;SDS011;55784;50.734;7.086;2023-08-07T12:43:01;9.98;;;2.30;;
68800;SDS011;55784;50.734;7.086;2023-08-07T12:45:27;8.97;;;2.73;;
68800;SDS011;55784;50.734;7.086;2023-08-07T12:47:52;15.75;;;5.13;;
68800;SDS011;55784;50.734;7.086;2023-08-07T12:50:18;8.67;;;2.00;;
68800;SDS011;55784;50.734;7.086;2023-08-07T12:52:43;14.20;;;5.63;;
68800;SDS011;55784;50.734;7.086;2023-08-07T12:55:09;9.10;;;2.87;;
68800;SDS011;55784;50.734;7.086;2023-08-07T12:57:35;11.15;;;3.60;;
68800;SDS011;55784;50.734;7.086;2023-08-07T13:00:00;13.07;;;4.50;;
68800;SDS011;55784;50.734;7.086;2023-08-07T13:02:25;8.10;;;2.30;;
68800;SDS011;55784;50.734;7.086;2023-08-07T13:04:50;8.53;;;2.50;;
68800;SDS011;55784;50.734;7.086;2023-08-07T13:07:19;11.15;;;4.03;;
68800;SDS011;55784;50.734;7.086;2023-08-07T13:09:45;14.93;;;5.13;;
68800;SDS011;55784;50.734;7.086;2023-08-07T13:12:10;9.43;;;2.50;;
68800;SDS011;55784;50.734;7.086;2023-08-07T13:14:35;13.23;;;4.60;;
68800;SDS011;55784;50.734;7.086;2023-08-07T13:17:00;7.50;;;2.20;;
68800;SDS011;55784;50.734;7.086;2023-08-07T13:19:26;11.73;;;4.23;;
68800;SDS011;55784;50.734;7.086;2023-08-07T13:21:51;10.83;;;4.13;;
68800;SDS011;55784;50.734;7.086;2023-08-07T13:24:16;11.80;;;3.60;;
68800;SDS011;55784;50.734;7.086;2023-08-07T13:26:42;10.90;;;3.37;;
68800;SDS011;55784;50.734;7.086;2023-08-07T13:29:12;8.15;;;2.58;;
68800;SDS011;55784;50.734;7.086;2023-08-07T13:31:38;7.93;;;2.15;;
68800;SDS011;55784;50.734;7.086;2023-08-07T13:34:03;8.53;;;2.37;;
68800;SDS011;55784;50.734;7.086;2023-08-07T13:36:36;9.95;;;2.38;;
68800;SDS011;55784;50.734;7.086;2023-08-07T13:39:05;8.18;;;2.20;;
68800;SDS011;55784;50.734;7.086;2023-08-07T13:41:31;7.17;;;1.90;;
68800;SDS011;55784;50.734;7.086;2023-08-07T13:43:57;6.55;;;1.67;;
68800;SDS011;55784;50.734;7.086;2023-08-07T13:46:23;8.23;;;1.80;;
68800;SDS011;55784;50.734;7.086;2023-08-07T13:48:48;8.00;;;2.13;;
68800;SDS011;55784;50.734;7.086;2023-08-07T13:51:13;9.53;;;2.60;;
68800;SDS011;55784;50.734;7.086;2023-08-07T13:53:39;7.80;;;1.88;;
68800;SDS011;55784;50.734;7.086;2023-08-07T13:56:05;8.30;;;2.00;;
68800;SDS011;55784;50.734;7.086;2023-08-07T13:58:31;6.03;;;1.85;;
68800;SDS011;55784;50.734;7.086;2023-08-07T14:00:56;8.00;;;1.90;;
68800;SDS011;55784;50.734;7.086;2023-08-07T14:03:22;7.73;;;2.03;;
68800;SDS011;55784;50.734;7.086;2023-08-07T14:05:48;7.32;;;1.60;;
68800;SDS011;55784;50.734;7.086;2023-08-07T14:08:15;7.40;;;2.00;;
68800;SDS011;55784;50.734;7.086;2023-08-07T14:10:40;7.20;;;2.10;;
68800;SDS011;55784;50.734;7.086;2023-08-07T14:13:05;6.87;;;1.77;;
68800;SDS011;55784;50.734;7.086;2023-08-07T14:15:31;6.57;;;1.70;;
68800;SDS011;55784;50.734;7.086;2023-08-07T14:17:56;7.97;;;2.00;;
68800;SDS011;55784;50.734;7.086;2023-08-07T14:20:22;7.20;;;1.70;;
68800;SDS011;55784;50.734;7.086;2023-08-07T14:22:48;8.15;;;1.90;;
68800;SDS011;55784;50.734;7.086;2023-08-07T14:25:14;6.87;;;1.80;;
68800;SDS011;55784;50.734;7.086;2023-08-07T14:27:39;6.93;;;1.77;;
68800;SDS011;55784;50.734;7.086;2023-08-07T14:30:05;5.70;;;1.50;;
68800;SDS011;55784;50.734;7.086;2023-08-07T14:32:30;5.30;;;1.57;;
68800;SDS011;55784;50.734;7.086;2023-08-07T14:34:56;6.20;;;1.50;;
68800;SDS011;55784;50.734;7.086;2023-08-07T14:37:21;6.63;;;1.60;;
68800;SDS011;55784;50.734;7.086;2023-08-07T14:39:47;7.47;;;1.80;;
68800;SDS011;55784;50.734;7.086;2023-08-07T14:42:12;6.27;;;1.60;;
68800;SDS011;55784;50.734;7.086;2023-08-07T14:44:37;5.63;;;1.57;;
68800;SDS011;55784;50.734;7.086;2023-08-07T14:47:02;7.37;;;1.60;;
68800;SDS011;55784;50.734;7.086;2023-08-07T14:49:28;6.30;;;1.50;;
68800;SDS011;55784;50.734;7.086;2023-08-07T14:51:54;7.13;;;1.50;;
68800;SDS011;55784;50.734;7.086;2023-08-07T14:54:19;5.57;;;1.30;;
68800;SDS011;55784;50.734;7.086;2023-08-07T14:56:45;5.53;;;1.57;;